createdAt,value
2018-07-29T00:01:41.228Z,6.20
2018-07-29T00:04:10.928Z,6.17
2018-07-29T00:06:40.672Z,6.20
2018-07-29T00:09:11.992Z,5.67
2018-07-29T00:11:41.918Z,6.03
2018-07-29T00:14:11.617Z,6.17
2018-07-29T00:16:41.346Z,5.97
2018-07-29T00:19:11.072Z,6.80
2018-07-29T00:21:40.768Z,6.43
2018-07-29T00:24:10.550Z,7.13
2018-07-29T00:26:41.423Z,6.50
2018-07-29T00:29:11.377Z,7.10
2018-07-29T00:31:41.131Z,7.20
2018-07-29T00:34:10.798Z,7.07
2018-07-29T00:36:40.583Z,6.90
2018-07-29T00:39:10.592Z,6.20
2018-07-29T00:41:40.293Z,6.50
2018-07-29T00:44:09.996Z,6.37
2018-07-29T00:46:46.198Z,8.20
2018-07-29T00:49:15.865Z,7.20
2018-07-29T00:51:45.584Z,7.70
2018-07-29T00:54:15.295Z,7.00
2018-07-29T00:56:44.950Z,6.53
2018-07-29T00:59:14.656Z,6.67
2018-07-29T01:01:44.385Z,9.30
2018-07-29T01:04:14.084Z,8.43
2018-07-29T01:06:43.796Z,9.40
2018-07-29T01:09:14.327Z,9.10
2018-07-29T01:11:44.340Z,8.90
2018-07-29T01:14:14.134Z,9.83
2018-07-29T01:16:43.803Z,7.37
2018-07-29T01:19:13.483Z,9.63
2018-07-29T01:21:43.223Z,9.83
2018-07-29T01:24:12.894Z,9.83
2018-07-29T01:26:42.563Z,9.13
2018-07-29T01:29:12.309Z,8.37
2018-07-29T01:31:41.988Z,7.87
2018-07-29T01:34:11.655Z,7.00
2018-07-29T01:36:41.361Z,7.77
2018-07-29T01:39:11.032Z,7.60
2018-07-29T01:41:40.785Z,7.63
2018-07-29T01:44:10.508Z,6.70
2018-07-29T01:46:40.160Z,6.40
2018-07-29T01:49:09.884Z,6.97
2018-07-29T01:51:39.639Z,6.77
2018-07-29T01:54:09.371Z,6.30
2018-07-29T01:56:39.163Z,6.00
2018-07-29T01:59:08.877Z,6.27
2018-07-29T02:01:38.576Z,4.93
2018-07-29T02:04:08.380Z,4.63
2018-07-29T02:06:38.064Z,4.73
2018-07-29T02:09:09.612Z,5.47
2018-07-29T02:11:39.398Z,5.20
2018-07-29T02:14:09.168Z,6.37
2018-07-29T02:16:38.827Z,7.03
2018-07-29T02:19:08.521Z,5.67
2018-07-29T02:21:38.187Z,5.40
2018-07-29T02:24:07.860Z,5.83
2018-07-29T02:26:37.686Z,6.20
2018-07-29T02:29:07.390Z,6.33
2018-07-29T02:31:37.116Z,5.87
2018-07-29T02:34:06.835Z,5.63
2018-07-29T02:36:36.523Z,6.03
2018-07-29T02:39:09.244Z,6.60
2018-07-29T02:41:38.917Z,7.47
2018-07-29T02:44:08.848Z,7.33
2018-07-29T02:46:38.588Z,6.50
2018-07-29T02:49:08.277Z,6.10
2018-07-29T02:51:37.973Z,5.70
2018-07-29T02:54:07.695Z,5.23
2018-07-29T02:56:37.377Z,5.27
2018-07-29T02:59:07.139Z,5.93
2018-07-29T03:01:36.837Z,5.90
2018-07-29T03:04:06.820Z,5.60
2018-07-29T03:06:36.549Z,5.57
2018-07-29T03:09:08.630Z,5.57
2018-07-29T03:11:38.696Z,5.07
2018-07-29T03:14:08.663Z,5.07
2018-07-29T03:16:38.329Z,4.17
2018-07-29T03:19:07.983Z,3.90
2018-07-29T03:21:37.656Z,4.47
2018-07-29T03:24:07.974Z,5.07
2018-07-29T03:26:37.652Z,4.93
2018-07-29T03:29:07.372Z,5.03
2018-07-29T03:31:37.077Z,4.03
2018-07-29T03:34:06.970Z,4.20
2018-07-29T03:36:36.676Z,4.33
2018-07-29T03:39:09.724Z,4.13
2018-07-29T03:41:40.779Z,4.53
2018-07-29T03:44:10.772Z,4.53
2018-07-29T03:46:41.143Z,4.57
2018-07-29T03:49:11.331Z,5.13
2018-07-29T03:51:41.079Z,5.10
2018-07-29T03:54:10.773Z,6.17
2018-07-29T03:56:40.515Z,5.30
2018-07-29T03:59:10.257Z,6.30
2018-07-29T04:01:39.951Z,5.00
2018-07-29T04:04:09.596Z,5.33
2018-07-29T04:06:39.299Z,4.80
2018-07-29T04:09:09.320Z,4.57
2018-07-29T04:11:38.996Z,4.70
2018-07-29T04:14:15.273Z,4.50
2018-07-29T04:16:45.257Z,4.60
2018-07-29T04:19:14.950Z,4.30
2018-07-29T04:21:44.644Z,4.90
2018-07-29T04:24:14.320Z,4.30
2018-07-29T04:26:43.996Z,4.67
2018-07-29T04:29:13.722Z,4.20
2018-07-29T04:31:43.442Z,4.03
2018-07-29T04:34:13.155Z,5.67
2018-07-29T04:36:42.901Z,5.27
2018-07-29T04:39:12.579Z,4.70
2018-07-29T04:41:42.365Z,4.40
2018-07-29T04:44:12.028Z,4.80
2018-07-29T04:46:41.696Z,4.80
2018-07-29T04:49:11.388Z,5.43
2018-07-29T04:51:41.082Z,5.17
2018-07-29T04:54:10.776Z,5.57
2018-07-29T04:56:40.501Z,5.90
2018-07-29T04:59:10.241Z,5.17
2018-07-29T05:01:39.971Z,5.37
2018-07-29T05:04:09.721Z,6.40
2018-07-29T05:06:39.514Z,4.97
2018-07-29T05:09:09.753Z,5.23
2018-07-29T05:11:39.448Z,5.50
2018-07-29T05:14:09.176Z,5.47
2018-07-29T05:16:38.870Z,5.30
2018-07-29T05:19:08.660Z,5.73
2018-07-29T05:21:38.339Z,5.63
2018-07-29T05:24:08.186Z,5.50
2018-07-29T05:26:37.867Z,4.87
2018-07-29T05:29:07.884Z,4.60
2018-07-29T05:31:37.580Z,4.83
2018-07-29T05:34:07.330Z,5.70
2018-07-29T05:36:37.027Z,6.17
2018-07-29T05:39:09.503Z,5.80
2018-07-29T05:41:39.208Z,6.10
2018-07-29T05:44:09.332Z,6.43
2018-07-29T05:46:39.304Z,7.10
2018-07-29T05:49:09.010Z,7.83
2018-07-29T05:51:38.740Z,7.23
2018-07-29T05:54:08.505Z,8.17
2018-07-29T05:56:38.292Z,8.83
2018-07-29T05:59:08.014Z,8.87
2018-07-29T06:01:37.729Z,8.93
2018-07-29T06:04:08.094Z,9.30
2018-07-29T06:06:37.778Z,8.73
2018-07-29T06:09:09.639Z,9.30
2018-07-29T06:11:39.655Z,9.70
2018-07-29T06:14:09.879Z,10.03
2018-07-29T06:16:39.587Z,9.60
2018-07-29T06:19:09.337Z,9.83
2018-07-29T06:21:39.035Z,10.20
2018-07-29T06:24:08.747Z,9.77
2018-07-29T06:26:38.466Z,9.97
2018-07-29T06:29:08.189Z,10.00
2018-07-29T06:31:37.922Z,10.03
2018-07-29T06:34:07.740Z,10.10
2018-07-29T06:36:37.424Z,9.60
2018-07-29T06:39:10.400Z,9.97
2018-07-29T06:41:40.190Z,8.20
2018-07-29T06:44:10.095Z,7.33
2018-07-29T06:46:39.774Z,9.27
2018-07-29T06:49:09.473Z,8.00
2018-07-29T06:51:39.223Z,8.33
2018-07-29T06:54:08.946Z,7.27
2018-07-29T06:56:38.683Z,7.90
2018-07-29T06:59:08.393Z,6.60
2018-07-29T07:01:38.056Z,6.53
2018-07-29T07:04:07.724Z,7.63
2018-07-29T07:06:37.452Z,6.20
2018-07-29T07:09:08.458Z,6.70
2018-07-29T07:11:38.216Z,6.83
2018-07-29T07:14:07.924Z,4.60
2018-07-29T07:16:37.571Z,4.83
2018-07-29T07:19:07.299Z,5.10
2018-07-29T07:21:36.977Z,4.53
2018-07-29T07:24:06.985Z,4.53
2018-07-29T07:26:36.643Z,4.03
2018-07-29T07:29:06.386Z,3.60
2018-07-29T07:31:36.098Z,3.40
2018-07-29T07:34:05.914Z,3.40
2018-07-29T07:36:35.650Z,2.90
2018-07-29T07:39:07.352Z,3.10
2018-07-29T07:41:37.328Z,3.20
2018-07-29T07:44:07.040Z,4.33
2018-07-29T07:46:36.721Z,3.70
2018-07-29T07:49:06.496Z,4.13
2018-07-29T07:51:36.161Z,4.33
2018-07-29T07:54:06.136Z,4.17
2018-07-29T07:56:35.822Z,3.80
2018-07-29T07:59:05.849Z,3.47
2018-07-29T08:01:35.893Z,3.57
2018-07-29T08:04:05.904Z,3.93
2018-07-29T08:06:35.635Z,4.07
2018-07-29T08:09:08.347Z,3.93
2018-07-29T08:11:38.148Z,3.50
2018-07-29T08:14:08.053Z,2.90
2018-07-29T08:16:37.718Z,2.97
2018-07-29T08:19:07.419Z,3.37
2018-07-29T08:21:37.139Z,2.93
2018-07-29T08:24:07.070Z,3.00
2018-07-29T08:26:36.736Z,3.27
2018-07-29T08:29:06.449Z,3.53
2018-07-29T08:31:36.195Z,3.70
2018-07-29T08:34:05.931Z,3.30
2018-07-29T08:36:35.602Z,3.50
2018-07-29T08:39:08.413Z,4.00
2018-07-29T08:41:38.115Z,3.67
2018-07-29T08:44:07.848Z,3.67
2018-07-29T08:46:37.695Z,3.67
2018-07-29T08:49:07.393Z,3.00
2018-07-29T08:51:37.214Z,3.37
2018-07-29T08:54:06.944Z,2.97
2018-07-29T08:56:36.587Z,3.10
2018-07-29T08:59:06.284Z,3.73
2018-07-29T09:01:35.988Z,3.43
2018-07-29T09:04:05.832Z,3.23
2018-07-29T09:06:35.489Z,3.10
2018-07-29T09:09:08.064Z,3.70
2018-07-29T09:11:37.879Z,2.80
2018-07-29T09:14:07.600Z,2.70
2018-07-29T09:16:37.621Z,3.00
2018-07-29T09:19:07.526Z,2.90
2018-07-29T09:21:37.251Z,2.50
2018-07-29T09:24:06.917Z,2.90
2018-07-29T09:26:36.552Z,3.00
2018-07-29T09:29:06.234Z,3.27
2018-07-29T09:31:35.885Z,3.07
2018-07-29T09:34:05.557Z,2.93
2018-07-29T09:36:35.299Z,2.97
2018-07-29T09:39:06.401Z,3.40
2018-07-29T09:41:36.461Z,3.20
2018-07-29T09:44:06.176Z,2.87
2018-07-29T09:46:36.024Z,3.27
2018-07-29T09:49:05.796Z,3.77
2018-07-29T09:51:35.425Z,3.05
2018-07-29T09:54:05.195Z,3.17
2018-07-29T09:56:34.843Z,3.37
2018-07-29T09:59:04.488Z,3.58
2018-07-29T10:01:34.215Z,3.52
2018-07-29T10:04:03.863Z,3.40
2018-07-29T10:06:33.508Z,3.35
2018-07-29T10:09:03.701Z,3.37
2018-07-29T10:11:33.356Z,3.87
2018-07-29T10:14:03.023Z,3.90
2018-07-29T10:16:32.764Z,3.20
2018-07-29T10:19:02.492Z,3.08
2018-07-29T10:21:32.216Z,3.37
2018-07-29T10:24:01.833Z,4.42
2018-07-29T10:26:31.488Z,3.85
2018-07-29T10:29:01.101Z,3.77
2018-07-29T10:31:30.781Z,4.00
2018-07-29T10:34:00.459Z,3.72
2018-07-29T10:36:30.120Z,3.67
2018-07-29T10:38:59.784Z,3.80
2018-07-29T10:41:29.495Z,4.47
2018-07-29T10:43:59.255Z,4.35
2018-07-29T10:46:29.035Z,3.55
2018-07-29T10:48:58.732Z,4.00
2018-07-29T10:51:28.541Z,4.22
2018-07-29T10:53:58.279Z,4.08
2018-07-29T10:56:28.053Z,3.72
2018-07-29T10:58:58.253Z,3.90
2018-07-29T11:01:27.960Z,3.58
2018-07-29T11:03:57.665Z,3.95
2018-07-29T11:06:27.351Z,4.22
2018-07-29T11:08:57.111Z,4.00
2018-07-29T11:11:26.895Z,4.10
2018-07-29T11:13:56.584Z,3.60
2018-07-29T11:16:26.299Z,3.98
2018-07-29T11:18:55.951Z,4.10
2018-07-29T11:21:25.599Z,4.03
2018-07-29T11:23:55.395Z,3.98
2018-07-29T11:26:25.027Z,3.60
2018-07-29T11:28:54.643Z,3.72
2018-07-29T11:31:24.336Z,3.47
2018-07-29T11:33:54.140Z,3.25
2018-07-29T11:36:23.848Z,3.20
2018-07-29T11:38:53.603Z,3.27
2018-07-29T11:41:23.275Z,3.02
2018-07-29T11:43:53.005Z,2.92
2018-07-29T11:46:22.727Z,3.22
2018-07-29T11:48:52.386Z,3.25
2018-07-29T11:51:22.099Z,3.00
2018-07-29T11:53:51.778Z,3.45
2018-07-29T11:56:21.484Z,2.83
2018-07-29T11:58:51.192Z,3.00
2018-07-29T12:01:20.844Z,2.67
2018-07-29T12:03:50.503Z,3.20
2018-07-29T12:06:20.220Z,3.25
2018-07-29T12:08:49.896Z,3.10
2018-07-29T12:11:19.748Z,3.37
2018-07-29T12:13:49.456Z,2.87
2018-07-29T12:16:19.343Z,3.35
2018-07-29T12:18:48.968Z,2.85
2018-07-29T12:21:18.640Z,3.08
2018-07-29T12:23:48.301Z,3.10
2018-07-29T12:26:17.961Z,3.15
2018-07-29T12:28:47.896Z,2.83
2018-07-29T12:31:17.524Z,2.87
2018-07-29T12:33:47.338Z,2.60
2018-07-29T12:36:17.031Z,2.70
2018-07-29T12:38:46.967Z,3.22
2018-07-29T12:41:16.603Z,2.75
2018-07-29T12:43:46.277Z,2.92
2018-07-29T12:46:15.895Z,2.60
2018-07-29T12:48:45.503Z,2.42
2018-07-29T12:51:15.200Z,2.20
2018-07-29T12:53:44.812Z,2.00
2018-07-29T12:56:14.594Z,2.20
2018-07-29T12:58:44.196Z,2.22
2018-07-29T13:01:13.815Z,2.15
2018-07-29T13:03:43.507Z,2.10
2018-07-29T13:06:13.190Z,2.40
2018-07-29T13:08:42.824Z,2.10
2018-07-29T13:11:12.487Z,2.50
2018-07-29T13:13:42.102Z,2.20
2018-07-29T13:16:11.780Z,2.25
2018-07-29T13:18:41.439Z,2.50
2018-07-29T13:21:11.039Z,2.35
2018-07-29T13:23:40.683Z,2.25
2018-07-29T13:26:10.364Z,2.20
2018-07-29T13:28:40.013Z,2.35
2018-07-29T13:31:09.647Z,2.05
2018-07-29T13:33:39.368Z,2.20
2018-07-29T13:36:08.988Z,2.50
2018-07-29T13:38:38.648Z,2.37
2018-07-29T13:41:08.475Z,2.10
2018-07-29T13:43:38.116Z,2.47
2018-07-29T13:46:07.805Z,2.00
2018-07-29T13:48:37.459Z,1.80
2018-07-29T13:51:07.320Z,2.20
2018-07-29T13:53:36.968Z,2.15
2018-07-29T13:56:06.807Z,2.08
2018-07-29T13:58:36.533Z,2.05
2018-07-29T14:01:06.228Z,2.08
2018-07-29T14:03:35.939Z,2.05
2018-07-29T14:06:05.738Z,2.17
2018-07-29T14:08:35.416Z,2.10
2018-07-29T14:11:05.099Z,2.30
2018-07-29T14:13:35.088Z,2.17
2018-07-29T14:16:04.791Z,2.10
2018-07-29T14:18:34.411Z,2.30
2018-07-29T14:21:04.304Z,2.30
2018-07-29T14:23:33.958Z,2.17
2018-07-29T14:26:03.596Z,2.35
2018-07-29T14:28:33.296Z,2.40
2018-07-29T14:31:02.964Z,2.40
2018-07-29T14:33:32.596Z,2.50
2018-07-29T14:36:02.295Z,2.33
2018-07-29T14:38:32.033Z,2.60
2018-07-29T14:41:01.687Z,2.30
2018-07-29T14:43:31.387Z,2.30
2018-07-29T14:46:01.043Z,2.17
2018-07-29T14:48:30.685Z,2.37
2018-07-29T14:51:00.349Z,2.60
2018-07-29T14:53:30.005Z,2.85
2018-07-29T14:55:59.952Z,2.52
2018-07-29T14:58:29.624Z,2.50
2018-07-29T15:00:59.304Z,2.67
2018-07-29T15:03:28.927Z,2.37
2018-07-29T15:05:58.632Z,2.50
2018-07-29T15:08:28.260Z,2.60
2018-07-29T15:10:57.917Z,2.40
2018-07-29T15:13:27.571Z,2.50
2018-07-29T15:15:57.230Z,2.70
2018-07-29T15:18:26.836Z,2.42
2018-07-29T15:20:56.533Z,2.50
2018-07-29T15:23:26.171Z,2.67
2018-07-29T15:25:55.803Z,2.37
2018-07-29T15:28:25.603Z,2.60
2018-07-29T15:30:55.211Z,2.50
2018-07-29T15:33:24.863Z,2.37
2018-07-29T15:35:54.826Z,2.80
2018-07-29T15:38:24.459Z,2.50
2018-07-29T15:40:54.119Z,2.40
2018-07-29T15:43:23.763Z,2.50
2018-07-29T15:45:53.391Z,2.40
2018-07-29T15:48:23.936Z,2.70
2018-07-29T15:50:53.587Z,2.75
2018-07-29T15:53:23.291Z,2.45
2018-07-29T15:55:52.939Z,2.45
2018-07-29T15:58:22.583Z,2.70
2018-07-29T16:00:52.281Z,2.37
2018-07-29T16:03:21.939Z,2.65
2018-07-29T16:05:51.578Z,2.45
2018-07-29T16:08:21.251Z,2.60
2018-07-29T16:10:50.936Z,2.52
2018-07-29T16:13:20.540Z,2.30
2018-07-29T16:15:50.235Z,2.67
2018-07-29T16:18:19.940Z,2.50
2018-07-29T16:20:49.596Z,2.47
2018-07-29T16:23:19.240Z,2.62
2018-07-29T16:25:48.872Z,2.67
2018-07-29T16:28:18.524Z,2.35
2018-07-29T16:30:48.247Z,2.60
2018-07-29T16:33:18.069Z,2.95
2018-07-29T16:35:47.722Z,2.65
2018-07-29T16:38:17.398Z,2.75
2018-07-29T16:40:47.104Z,2.50
2018-07-29T16:43:16.738Z,2.58
2018-07-29T16:45:46.583Z,2.25
2018-07-29T16:48:16.444Z,2.47
2018-07-29T16:50:46.143Z,2.45
2018-07-29T16:53:15.775Z,2.60
2018-07-29T16:55:45.437Z,2.58
2018-07-29T16:58:15.136Z,2.75
2018-07-29T17:00:44.783Z,2.50
2018-07-29T17:03:14.513Z,2.60
2018-07-29T17:05:44.212Z,2.67
2018-07-29T17:08:13.868Z,2.67
2018-07-29T17:10:43.637Z,3.00
2018-07-29T17:13:13.324Z,2.35
2018-07-29T17:15:43.059Z,2.30
2018-07-29T17:18:12.856Z,2.70
2018-07-29T17:20:42.499Z,4.28
2018-07-29T17:23:12.251Z,2.70
2018-07-29T17:25:41.901Z,2.45
2018-07-29T17:28:11.617Z,2.65
2018-07-29T17:30:41.391Z,2.70
2018-07-29T17:33:11.116Z,2.27
2018-07-29T17:35:40.798Z,2.95
2018-07-29T17:38:10.507Z,2.98
2018-07-29T17:40:40.170Z,2.90
2018-07-29T17:43:09.955Z,2.60
2018-07-29T17:45:39.619Z,2.58
2018-07-29T17:48:09.281Z,2.77
2018-07-29T17:50:39.024Z,2.77
2018-07-29T17:53:08.882Z,2.80
2018-07-29T17:55:38.616Z,2.70
2018-07-29T17:58:08.322Z,2.30
2018-07-29T18:00:38.043Z,2.33
2018-07-29T18:03:07.697Z,2.65
2018-07-29T18:05:37.483Z,2.55
2018-07-29T18:08:07.261Z,2.27
2018-07-29T18:10:36.984Z,2.67
2018-07-29T18:13:06.792Z,2.17
2018-07-29T18:15:36.594Z,2.55
2018-07-29T18:18:06.703Z,2.50
2018-07-29T18:20:36.359Z,2.90
2018-07-29T18:23:06.435Z,2.80
2018-07-29T18:25:36.489Z,2.92
2018-07-29T18:28:06.215Z,2.58
2018-07-29T18:30:35.911Z,2.83
2018-07-29T18:33:05.644Z,2.60
2018-07-29T18:35:35.308Z,2.62
2018-07-29T18:38:05.031Z,2.80
2018-07-29T18:40:34.719Z,2.52
2018-07-29T18:43:04.349Z,2.45
2018-07-29T18:45:34.008Z,2.80
2018-07-29T18:48:03.752Z,2.30
2018-07-29T18:50:33.375Z,2.75
2018-07-29T18:53:03.010Z,2.80
2018-07-29T18:55:32.686Z,2.75
2018-07-29T18:58:02.352Z,2.90
2018-07-29T19:00:32.019Z,3.52
2018-07-29T19:03:01.980Z,3.22
2018-07-29T19:05:31.701Z,2.55
2018-07-29T19:08:01.399Z,2.87
2018-07-29T19:10:31.057Z,2.40
2018-07-29T19:13:00.708Z,2.98
2018-07-29T19:15:30.399Z,2.92
2018-07-29T19:18:00.137Z,2.40
2018-07-29T19:20:29.876Z,3.00
2018-07-29T19:22:59.547Z,2.87
2018-07-29T19:25:29.175Z,2.60
2018-07-29T19:27:58.823Z,2.80
2018-07-29T19:30:28.428Z,2.55
2018-07-29T19:32:58.108Z,2.08
2018-07-29T19:35:28.475Z,2.75
2018-07-29T19:37:58.199Z,2.80
2018-07-29T19:40:27.832Z,2.50
2018-07-29T19:42:57.457Z,2.58
2018-07-29T19:45:27.154Z,2.60
2018-07-29T19:47:56.793Z,2.40
2018-07-29T19:50:26.448Z,3.05
2018-07-29T19:52:56.156Z,2.40
2018-07-29T19:55:25.772Z,2.67
2018-07-29T19:57:55.468Z,2.90
2018-07-29T20:00:25.181Z,2.58
2018-07-29T20:02:54.815Z,2.58
2018-07-29T20:05:24.494Z,2.60
2018-07-29T20:07:54.120Z,2.27
2018-07-29T20:10:23.809Z,2.25
2018-07-29T20:12:53.438Z,2.33
2018-07-29T20:15:23.101Z,2.47
2018-07-29T20:17:52.739Z,2.52
2018-07-29T20:20:22.376Z,2.30
2018-07-29T20:22:52.139Z,2.65
2018-07-29T20:25:21.785Z,2.75
2018-07-29T20:27:51.521Z,2.42
2018-07-29T20:30:21.227Z,2.45
2018-07-29T20:32:50.875Z,2.50
2018-07-29T20:35:20.507Z,2.58
2018-07-29T20:37:50.267Z,3.02
2018-07-29T20:40:19.931Z,2.83
2018-07-29T20:42:49.599Z,2.83
2018-07-29T20:45:19.547Z,2.80
2018-07-29T20:47:49.169Z,2.55
2018-07-29T20:50:18.822Z,3.10
2018-07-29T20:52:48.511Z,2.72
2018-07-29T20:55:18.174Z,3.00
2018-07-29T20:57:47.870Z,3.10
2018-07-29T21:00:17.621Z,3.30
2018-07-29T21:02:47.268Z,2.98
2018-07-29T21:05:16.911Z,3.20
2018-07-29T21:07:46.573Z,3.22
2018-07-29T21:10:16.205Z,3.22
2018-07-29T21:12:45.836Z,3.17
2018-07-29T21:15:15.516Z,3.17
2018-07-29T21:17:45.168Z,3.45
2018-07-29T21:20:14.788Z,3.10
2018-07-29T21:22:44.462Z,3.20
2018-07-29T21:25:14.107Z,3.27
2018-07-29T21:27:43.748Z,3.45
2018-07-29T21:30:13.415Z,3.67
2018-07-29T21:32:43.076Z,3.40
2018-07-29T21:35:12.720Z,3.10
2018-07-29T21:37:42.395Z,3.47
2018-07-29T21:40:12.030Z,3.25
2018-07-29T21:42:41.674Z,3.30
2018-07-29T21:45:11.344Z,3.08
2018-07-29T21:47:40.983Z,3.37
2018-07-29T21:50:10.621Z,3.25
2018-07-29T21:52:40.339Z,3.37
2018-07-29T21:55:09.965Z,3.40
2018-07-29T21:57:39.611Z,3.20
2018-07-29T22:00:09.945Z,3.15
2018-07-29T22:02:44.491Z,3.30
2018-07-29T22:05:14.927Z,3.60
2018-07-29T22:07:44.589Z,3.30
2018-07-29T22:10:14.248Z,3.15
2018-07-29T22:12:43.861Z,3.60
2018-07-29T22:15:13.547Z,3.17
2018-07-29T22:17:43.321Z,3.55
2018-07-29T22:20:12.938Z,3.60
2018-07-29T22:22:42.596Z,3.45
2018-07-29T22:25:21.701Z,3.25
2018-07-29T22:27:51.339Z,3.75
2018-07-29T22:30:26.008Z,3.65
2018-07-29T22:32:55.788Z,3.30
2018-07-29T22:35:25.393Z,3.45
2018-07-29T22:37:55.043Z,3.12
2018-07-29T22:40:24.688Z,3.55
2018-07-29T22:42:54.341Z,3.60
2018-07-29T22:45:24.040Z,3.20
2018-07-29T22:47:53.727Z,3.55
2018-07-29T22:50:23.428Z,3.92
2018-07-29T22:52:53.093Z,3.65
2018-07-29T22:55:22.738Z,3.72
2018-07-29T22:57:52.358Z,3.27
2018-07-29T23:00:22.140Z,3.62
2018-07-29T23:02:51.819Z,3.50
2018-07-29T23:05:21.479Z,3.98
2018-07-29T23:07:51.363Z,3.80
2018-07-29T23:10:21.040Z,3.40
2018-07-29T23:12:50.664Z,3.40
2018-07-29T23:15:20.355Z,3.65
2018-07-29T23:17:49.981Z,3.30
2018-07-29T23:20:19.731Z,3.52
2018-07-29T23:22:49.405Z,3.20
2018-07-29T23:25:19.039Z,3.60
2018-07-29T23:27:48.671Z,4.00
2018-07-29T23:30:18.384Z,3.75
2018-07-29T23:32:48.000Z,4.03
2018-07-29T23:35:17.640Z,3.80
2018-07-29T23:37:47.300Z,3.75
2018-07-29T23:40:16.939Z,3.77
2018-07-29T23:42:46.607Z,3.60
2018-07-29T23:45:16.269Z,3.83
2018-07-29T23:47:45.908Z,3.58
2018-07-29T23:50:15.588Z,3.27
2018-07-29T23:52:45.297Z,3.92
2018-07-29T23:55:14.957Z,3.77
2018-07-29T23:57:44.571Z,3.80
